createdAt,value
2022-08-14T00:01:10.416Z,86.59
2022-08-14T00:04:34.817Z,87.21
2022-08-14T00:07:36.088Z,85.66
2022-08-14T00:10:51.960Z,84.92
2022-08-14T00:13:54.813Z,83.85
2022-08-14T00:16:56.556Z,85.33
2022-08-14T00:19:58.283Z,83.55
2022-08-14T00:23:12.367Z,81.91
2022-08-14T00:26:23.046Z,80.48
2022-08-14T00:29:27.142Z,80.14
2022-08-14T00:32:52.598Z,82.01
2022-08-14T00:36:35.425Z,81.11
2022-08-14T00:39:17.756Z,80.44
2022-08-14T00:42:21.362Z,80.77
2022-08-14T00:45:43.268Z,84.86
2022-08-14T00:48:54.117Z,86.78
2022-08-14T00:52:00.570Z,87.57
2022-08-14T00:55:03.051Z,89.06
2022-08-14T00:58:27.742Z,88.66
2022-08-14T01:01:36.271Z,89.43
2022-08-14T01:04:53.673Z,89.22
2022-08-14T01:08:06.443Z,89.08
2022-08-14T01:11:35.528Z,89.40
2022-08-14T01:14:37.986Z,89.74
2022-08-14T01:18:01.659Z,89.93
2022-08-14T01:21:03.921Z,91.45
2022-08-14T01:24:09.889Z,90.53
2022-08-14T01:27:22.264Z,90.83
2022-08-14T01:30:24.849Z,91.13
2022-08-14T01:33:59.248Z,92.95
2022-08-14T01:36:54.121Z,92.79
2022-08-14T01:39:55.843Z,93.26
2022-08-14T01:42:57.546Z,92.99
2022-08-14T01:46:06.440Z,93.64
2022-08-14T01:49:12.023Z,92.69
2022-08-14T01:52:34.110Z,92.57
2022-08-14T01:55:40.415Z,92.27
2022-08-14T01:58:57.205Z,90.95
2022-08-14T02:02:19.024Z,91.51
2022-08-14T02:05:34.963Z,91.45
2022-08-14T02:08:53.167Z,92.42
2022-08-14T02:11:56.911Z,92.92
2022-08-14T02:15:01.563Z,93.47
2022-08-14T02:18:04.419Z,91.71
2022-08-14T02:21:06.571Z,92.28
2022-08-14T02:24:38.293Z,92.04
2022-08-14T02:28:23.644Z,91.62
2022-08-14T02:30:52.876Z,91.23
2022-08-14T02:33:55.077Z,91.69
2022-08-14T02:37:03.486Z,91.16
2022-08-14T02:40:09.316Z,92.76
2022-08-14T02:43:11.735Z,91.63
2022-08-14T02:46:20.653Z,91.58
2022-08-14T02:49:34.295Z,91.87
2022-08-14T02:52:57.145Z,91.97
2022-08-14T02:56:02.926Z,89.21
2022-08-14T02:59:08.058Z,88.86
2022-08-14T03:02:48.882Z,90.71
2022-08-14T03:05:32.986Z,92.45
2022-08-14T03:08:39.651Z,93.36
2022-08-14T03:11:47.695Z,94.04
2022-08-14T03:14:51.702Z,94.13
2022-08-14T03:17:57.789Z,93.50
2022-08-14T03:21:06.162Z,93.05
2022-08-14T03:24:21.663Z,92.21
2022-08-14T03:27:35.412Z,90.87
2022-08-14T03:30:49.473Z,90.87
2022-08-14T03:34:00.013Z,89.23
2022-08-14T03:37:38.143Z,89.54
2022-08-14T03:40:25.298Z,89.22
2022-08-14T03:43:28.506Z,88.41
2022-08-14T03:46:52.961Z,90.12
2022-08-14T03:49:56.558Z,90.78
2022-08-14T03:53:01.654Z,90.39
2022-08-14T03:56:08.035Z,90.19
2022-08-14T03:59:17.994Z,90.76
2022-08-14T04:02:37.288Z,90.67
2022-08-14T04:05:43.281Z,91.13
2022-08-14T04:08:50.624Z,90.99
2022-08-14T04:11:52.295Z,90.97
2022-08-14T04:14:54.299Z,92.55
2022-08-14T04:17:56.430Z,91.56
2022-08-14T04:20:58.812Z,92.86
2022-08-14T04:24:02.101Z,92.36
2022-08-14T04:27:04.082Z,93.27
2022-08-14T04:30:06.524Z,92.63
2022-08-14T04:33:18.394Z,92.67
2022-08-14T04:36:23.935Z,91.89
2022-08-14T04:39:46.503Z,93.50
2022-08-14T04:43:07.061Z,94.06
2022-08-14T04:46:56.603Z,93.76
2022-08-14T04:49:46.708Z,93.37
2022-08-14T04:52:59.338Z,92.65
2022-08-14T04:56:06.062Z,92.29
2022-08-14T04:59:12.612Z,91.79
2022-08-14T05:02:16.615Z,91.88
2022-08-14T05:05:20.940Z,93.33
2022-08-14T05:08:31.840Z,93.03
2022-08-14T05:11:47.393Z,93.37
2022-08-14T05:14:54.742Z,93.96
2022-08-14T05:18:03.672Z,94.35
2022-08-14T05:21:59.859Z,94.46
2022-08-14T05:24:40.598Z,93.57
2022-08-14T05:27:42.491Z,93.91
2022-08-14T05:30:44.458Z,93.88
2022-08-14T05:33:46.830Z,94.75
2022-08-14T05:37:02.066Z,95.69
2022-08-14T05:40:04.888Z,95.39
2022-08-14T05:43:07.006Z,95.45
2022-08-14T05:46:15.314Z,94.03
2022-08-14T05:49:17.295Z,93.68
2022-08-14T05:52:38.586Z,93.37
2022-08-14T05:55:42.873Z,92.92
2022-08-14T05:58:46.710Z,94.20
2022-08-14T06:01:50.621Z,94.92
2022-08-14T06:04:52.738Z,95.08
2022-08-14T06:07:54.613Z,95.02
2022-08-14T06:11:03.677Z,92.90
2022-08-14T06:14:12.408Z,90.81
2022-08-14T06:17:25.778Z,91.67
2022-08-14T06:20:30.174Z,91.98
2022-08-14T06:23:32.217Z,92.70
2022-08-14T06:26:34.121Z,92.71
2022-08-14T06:29:37.315Z,92.70
2022-08-14T06:32:42.300Z,92.35
2022-08-14T06:35:44.663Z,92.17
2022-08-14T06:38:50.487Z,92.54
2022-08-14T06:41:57.953Z,93.00
2022-08-14T06:45:02.767Z,92.39
2022-08-14T06:48:06.299Z,92.29
2022-08-14T06:51:14.485Z,93.61
2022-08-14T06:54:16.123Z,91.71
2022-08-14T06:57:18.021Z,91.12
2022-08-14T07:00:31.194Z,91.50
2022-08-14T07:03:52.230Z,91.38
2022-08-14T07:06:55.583Z,91.39
2022-08-14T07:10:01.316Z,89.81
2022-08-14T07:13:04.386Z,90.23
2022-08-14T07:16:06.887Z,90.55
2022-08-14T07:19:09.950Z,90.16
2022-08-14T07:22:17.623Z,88.90
2022-08-14T07:25:22.412Z,87.59
2022-08-14T07:28:43.593Z,86.17
2022-08-14T07:31:46.965Z,86.06
2022-08-14T07:34:49.245Z,83.62
2022-08-14T07:37:52.710Z,82.79
2022-08-14T07:40:54.575Z,84.81
2022-08-14T07:43:57.748Z,84.33
2022-08-14T07:46:59.454Z,83.50
2022-08-14T07:50:08.043Z,83.61
2022-08-14T07:53:14.199Z,83.75
2022-08-14T07:56:43.767Z,82.52
2022-08-14T07:59:44.113Z,81.73
2022-08-14T08:02:51.723Z,80.45
2022-08-14T08:05:58.043Z,78.67
2022-08-14T08:09:03.072Z,77.29
2022-08-14T08:12:09.475Z,77.35
2022-08-14T08:15:17.073Z,77.69
2022-08-14T08:18:20.411Z,77.64
2022-08-14T08:21:33.270Z,76.82
2022-08-14T08:24:37.305Z,75.26
2022-08-14T08:27:44.496Z,75.22
2022-08-14T08:30:52.165Z,75.24
2022-08-14T08:33:54.529Z,76.08
2022-08-14T08:36:58.255Z,76.64
2022-08-14T08:40:02.936Z,75.89
2022-08-14T08:43:08.607Z,74.10
2022-08-14T08:46:21.272Z,73.33
2022-08-14T08:49:52.707Z,74.07
2022-08-14T08:53:04.735Z,72.18
2022-08-14T08:56:06.974Z,70.72
2022-08-14T08:59:31.564Z,69.66
2022-08-14T09:02:35.598Z,68.27
2022-08-14T09:05:39.256Z,69.12
2022-08-14T09:08:45.688Z,67.70
2022-08-14T09:11:47.418Z,68.90
2022-08-14T09:14:53.226Z,67.38
2022-08-14T09:17:55.191Z,67.72
2022-08-14T09:20:58.914Z,68.20
2022-08-14T09:24:28.529Z,66.09
2022-08-14T09:27:23.383Z,65.98
2022-08-14T09:30:31.443Z,66.63
2022-08-14T09:33:56.250Z,64.36
2022-08-14T09:37:23.979Z,62.91
2022-08-14T09:41:02.565Z,64.62
2022-08-14T09:44:29.977Z,63.48
2022-08-14T09:47:54.000Z,60.34
2022-08-14T09:50:57.261Z,62.09
2022-08-14T09:54:18.038Z,59.66
2022-08-14T09:57:30.429Z,59.99
2022-08-14T10:00:43.826Z,57.61
2022-08-14T10:03:53.688Z,57.98
2022-08-14T10:06:55.590Z,57.51
2022-08-14T10:10:01.796Z,55.27
2022-08-14T10:13:07.421Z,52.52
2022-08-14T10:16:25.798Z,52.28
2022-08-14T10:19:29.402Z,54.22
2022-08-14T10:23:15.008Z,53.31
2022-08-14T10:26:07.275Z,50.93
2022-08-14T10:29:19.423Z,51.09
2022-08-14T10:32:28.987Z,51.50
2022-08-14T10:35:47.794Z,50.60
2022-08-14T10:38:58.237Z,50.35
2022-08-14T10:42:16.241Z,51.56
2022-08-14T10:45:25.740Z,48.39
2022-08-14T10:48:37.191Z,46.61
2022-08-14T10:51:44.367Z,45.69
2022-08-14T10:54:48.474Z,46.37
2022-08-14T10:57:58.244Z,46.26
2022-08-14T11:01:01.053Z,47.15
2022-08-14T11:04:05.290Z,47.25
2022-08-14T11:07:16.888Z,42.07
2022-08-14T11:10:47.196Z,43.59
2022-08-14T11:13:51.112Z,43.69
2022-08-14T11:16:54.005Z,44.04
2022-08-14T11:19:58.850Z,43.66
2022-08-14T11:23:01.925Z,42.50
2022-08-14T11:26:06.702Z,43.61
2022-08-14T11:29:10.272Z,42.93
2022-08-14T11:32:12.374Z,43.06
2022-08-14T11:35:44.049Z,43.37
2022-08-14T11:38:49.475Z,42.11
2022-08-14T11:41:56.082Z,41.08
2022-08-14T11:45:00.736Z,41.54
2022-08-14T11:49:02.433Z,40.80
2022-08-14T11:51:53.636Z,39.16
2022-08-14T11:54:57.854Z,38.53
2022-08-14T11:58:11.156Z,37.87
2022-08-14T12:01:15.119Z,36.02
2022-08-14T12:04:31.763Z,32.74
2022-08-14T12:07:34.709Z,33.79
2022-08-14T12:10:42.413Z,32.46
2022-08-14T12:13:45.106Z,32.10
2022-08-14T12:17:04.209Z,32.15
2022-08-14T12:20:07.128Z,32.15
2022-08-14T12:23:23.114Z,30.34
2022-08-14T12:26:38.847Z,30.47
2022-08-14T12:29:53.288Z,31.51
2022-08-14T12:32:56.321Z,31.61
2022-08-14T12:36:04.421Z,30.33
2022-08-14T12:39:22.558Z,29.37
2022-08-14T12:42:38.653Z,30.23
2022-08-14T12:45:55.024Z,29.60
2022-08-14T12:49:18.872Z,30.45
2022-08-14T12:53:06.465Z,29.83
2022-08-14T12:56:22.184Z,28.87
2022-08-14T12:59:37.119Z,28.91
2022-08-14T13:02:46.705Z,29.27
2022-08-14T13:05:56.874Z,27.99
2022-08-14T13:09:00.258Z,28.67
2022-08-14T13:12:32.374Z,27.79
2022-08-14T13:15:27.251Z,27.05
2022-08-14T13:18:31.293Z,28.63
2022-08-14T13:21:58.249Z,28.95
2022-08-14T13:24:55.432Z,29.00
2022-08-14T13:27:59.105Z,28.14
2022-08-14T13:31:11.194Z,28.34
2022-08-14T13:34:13.713Z,28.09
2022-08-14T13:37:17.541Z,27.79
2022-08-14T13:40:21.383Z,28.73
2022-08-14T13:43:36.501Z,27.00
2022-08-14T13:46:39.127Z,26.09
2022-08-14T13:49:57.843Z,26.48
2022-08-14T13:53:03.750Z,28.58
2022-08-14T13:56:06.590Z,26.93
2022-08-14T13:59:20.501Z,27.42
2022-08-14T14:02:48.186Z,27.07
2022-08-14T14:05:54.371Z,26.72
2022-08-14T14:08:59.181Z,28.17
2022-08-14T14:12:01.218Z,26.21
2022-08-14T14:15:07.541Z,27.30
2022-08-14T14:18:29.893Z,26.67
2022-08-14T14:21:34.338Z,27.68
2022-08-14T14:24:36.081Z,26.85
2022-08-14T14:27:41.584Z,26.42
2022-08-14T14:30:53.852Z,27.34
2022-08-14T14:34:01.180Z,27.22
2022-08-14T14:37:15.434Z,26.04
2022-08-14T14:40:50.398Z,27.27
2022-08-14T14:43:44.849Z,26.91
2022-08-14T14:46:50.046Z,26.95
2022-08-14T14:49:55.057Z,28.07
2022-08-14T14:53:12.393Z,27.98
2022-08-14T14:56:49.527Z,28.08
2022-08-14T14:59:37.592Z,27.61
2022-08-14T15:02:46.045Z,27.61
2022-08-14T15:05:53.240Z,27.87
2022-08-14T15:08:59.716Z,27.37
2022-08-14T15:12:16.053Z,28.10
2022-08-14T15:15:24.506Z,27.59
2022-08-14T15:18:36.902Z,28.08
2022-08-14T15:21:40.215Z,27.97
2022-08-14T15:24:44.140Z,29.03
2022-08-14T15:27:51.124Z,28.87
2022-08-14T15:30:58.998Z,28.69
2022-08-14T15:34:43.939Z,28.82
2022-08-14T15:37:42.408Z,28.84
2022-08-14T15:40:44.543Z,29.46
2022-08-14T15:43:56.655Z,28.83
2022-08-14T15:46:59.752Z,29.29
2022-08-14T15:50:04.897Z,29.64
2022-08-14T15:53:09.133Z,29.19
2022-08-14T15:56:42.196Z,28.40
2022-08-14T15:59:56.723Z,29.22
2022-08-14T16:03:00.744Z,29.75
2022-08-14T16:06:11.175Z,29.78
2022-08-14T16:09:17.614Z,29.80
2022-08-14T16:12:20.278Z,30.05
2022-08-14T16:15:52.991Z,29.89
2022-08-14T16:18:58.170Z,29.60
2022-08-14T16:22:57.229Z,30.09
2022-08-14T16:25:35.373Z,29.44
2022-08-14T16:28:37.925Z,29.34
2022-08-14T16:31:43.086Z,29.05
2022-08-14T16:34:48.507Z,29.01
2022-08-14T16:37:53.019Z,29.52
2022-08-14T16:41:17.102Z,29.21
2022-08-14T16:44:22.034Z,29.36
2022-08-14T16:47:36.303Z,30.07
2022-08-14T16:50:43.624Z,28.90
2022-08-14T16:53:47.473Z,29.84
2022-08-14T16:56:49.516Z,29.50
2022-08-14T16:59:57.749Z,29.40
2022-08-14T17:03:11.736Z,30.70
2022-08-14T17:06:30.880Z,31.60
2022-08-14T17:09:43.600Z,32.46
2022-08-14T17:12:45.779Z,32.73
2022-08-14T17:16:05.880Z,32.73
2022-08-14T17:19:14.436Z,32.86
2022-08-14T17:22:19.486Z,32.50
2022-08-14T17:25:23.150Z,33.30
2022-08-14T17:28:51.395Z,33.18
2022-08-14T17:32:02.156Z,33.12
2022-08-14T17:35:07.601Z,33.37
2022-08-14T17:38:33.384Z,33.68
2022-08-14T17:41:37.632Z,33.80
2022-08-14T17:44:46.008Z,34.74
2022-08-14T17:47:47.990Z,34.59
2022-08-14T17:50:59.418Z,35.29
2022-08-14T17:54:04.676Z,35.63
2022-08-14T17:57:14.104Z,35.64
2022-08-14T18:00:17.478Z,35.72
2022-08-14T18:03:50.961Z,36.66
2022-08-14T18:06:58.935Z,36.69
2022-08-14T18:10:51.751Z,35.94
2022-08-14T18:13:49.798Z,35.69
2022-08-14T18:16:55.924Z,35.74
2022-08-14T18:19:58.804Z,36.31
2022-08-14T18:23:01.342Z,37.95
2022-08-14T18:26:07.737Z,38.55
2022-08-14T18:29:31.625Z,39.22
2022-08-14T18:32:33.567Z,40.59
2022-08-14T18:36:46.758Z,41.83
2022-08-14T18:39:32.452Z,42.33
2022-08-14T18:42:35.819Z,42.47
2022-08-14T18:45:41.324Z,41.61
2022-08-14T18:48:50.840Z,42.40
2022-08-14T18:52:20.174Z,43.82
2022-08-14T18:55:22.375Z,44.37
2022-08-14T18:58:57.354Z,45.50
2022-08-14T19:02:34.261Z,46.08
2022-08-14T19:05:47.094Z,45.55
2022-08-14T19:08:50.189Z,46.53
2022-08-14T19:11:53.027Z,46.74
2022-08-14T19:15:08.147Z,48.86
2022-08-14T19:18:25.865Z,49.92
2022-08-14T19:21:42.989Z,50.76
2022-08-14T19:24:45.255Z,52.01
2022-08-14T19:28:31.228Z,53.37
2022-08-14T19:31:42.156Z,53.17
2022-08-14T19:34:52.748Z,54.03
2022-08-14T19:37:56.266Z,55.13
2022-08-14T19:40:58.818Z,55.77
2022-08-14T19:44:10.120Z,55.57
2022-08-14T19:47:13.420Z,56.74
2022-08-14T19:50:37.909Z,57.29
2022-08-14T19:53:56.418Z,57.44
2022-08-14T19:56:58.311Z,59.10
2022-08-14T20:00:01.058Z,59.25
2022-08-14T20:03:18.643Z,60.13
2022-08-14T20:06:25.510Z,59.73
2022-08-14T20:11:08.261Z,60.27
2022-08-14T20:13:10.258Z,60.17
2022-08-14T20:16:12.827Z,59.66
2022-08-14T20:19:28.808Z,60.56
2022-08-14T20:22:38.615Z,60.35
2022-08-14T20:25:55.826Z,59.71
2022-08-14T20:29:04.580Z,58.97
2022-08-14T20:32:07.317Z,58.29
2022-08-14T20:35:09.291Z,57.35
2022-08-14T20:38:28.683Z,56.27
2022-08-14T20:41:33.802Z,56.33
2022-08-14T20:45:03.931Z,56.63
2022-08-14T20:48:09.196Z,57.12
2022-08-14T20:51:25.390Z,58.15
2022-08-14T20:54:50.677Z,58.41
2022-08-14T20:57:57.687Z,58.06
2022-08-14T21:01:20.778Z,58.84
2022-08-14T21:04:26.672Z,58.74
2022-08-14T21:07:36.611Z,58.85
2022-08-14T21:10:44.036Z,59.27
2022-08-14T21:14:21.054Z,59.11
2022-08-14T21:17:08.504Z,58.89
2022-08-14T21:20:25.478Z,59.11
2022-08-14T21:23:32.314Z,58.41
2022-08-14T21:26:52.442Z,58.78
2022-08-14T21:29:57.183Z,58.69
2022-08-14T21:32:59.641Z,59.23
2022-08-14T21:36:09.850Z,59.33
2022-08-14T21:39:22.312Z,59.67
2022-08-14T21:42:27.897Z,60.52
2022-08-14T21:45:35.381Z,60.34
2022-08-14T21:48:37.860Z,60.48
2022-08-14T21:51:57.113Z,60.60
2022-08-14T21:55:09.273Z,60.16
2022-08-14T21:58:52.803Z,60.39
2022-08-14T22:01:59.644Z,60.55
2022-08-14T22:04:56.644Z,61.05
2022-08-14T22:07:58.487Z,61.19
2022-08-14T22:11:00.192Z,61.25
2022-08-14T22:14:26.063Z,61.41
2022-08-14T22:17:32.127Z,62.53
2022-08-14T22:20:36.401Z,61.69
2022-08-14T22:23:38.209Z,62.13
2022-08-14T22:26:44.914Z,62.22
2022-08-14T22:29:46.844Z,61.55
2022-08-14T22:33:00.029Z,61.80
2022-08-14T22:36:25.515Z,62.86
2022-08-14T22:40:17.585Z,61.77
2022-08-14T22:43:00.505Z,62.83
2022-08-14T22:46:06.047Z,61.56
2022-08-14T22:49:16.507Z,63.01
2022-08-14T22:52:33.145Z,63.76
2022-08-14T22:55:36.566Z,64.03
2022-08-14T22:58:38.558Z,63.42
2022-08-14T23:01:57.323Z,64.18
2022-08-14T23:05:04.681Z,63.67
2022-08-14T23:09:01.977Z,63.71
2022-08-14T23:11:29.722Z,63.05
2022-08-14T23:14:32.074Z,62.45
2022-08-14T23:17:39.571Z,62.44
2022-08-14T23:20:42.512Z,62.70
2022-08-14T23:23:46.139Z,62.69
2022-08-14T23:26:53.819Z,63.06
2022-08-14T23:29:55.649Z,62.83
2022-08-14T23:32:57.387Z,62.86
2022-08-14T23:36:03.288Z,62.96
2022-08-14T23:39:10.612Z,62.57
2022-08-14T23:42:22.322Z,62.36
2022-08-14T23:45:48.563Z,62.63
2022-08-14T23:48:52.453Z,62.50
2022-08-14T23:52:49.529Z,62.13
2022-08-14T23:55:16.763Z,61.82
2022-08-14T23:58:29.324Z,61.03
